Time;durP1;ratioP1;P1;durP2;ratioP2;P2;SDS_P1;SDS_P2;PMS_P1;PMS_P2;Temp;Humidity;BMP_temperature;BMP_pressure;BME280_temperature;BME280_humidity;BME280_pressure;Samples;Min_cycle;Max_cycle;Signal;HPM_P1;HPM_P2
2023/11/30 00:01:52;;;;;;;12.93;6.20;;;;;;;1.15;100.00;99141.63;4976608;28;20057;-91
2023/11/30 00:04:17;;;;;;;14.25;5.90;;;;;;;0.96;100.00;99142.34;4976712;28;20034;-90
2023/11/30 00:06:42;;;;;;;18.15;7.45;;;;;;;1.02;100.00;99139.53;4975118;28;20034;-91
2023/11/30 00:09:08;;;;;;;16.35;6.55;;;;;;;1.10;100.00;99139.28;4975528;28;20031;-90
2023/11/30 00:11:33;;;;;;;14.50;6.88;;;;;;;1.08;100.00;99140.22;4976542;28;20034;-91
2023/11/30 00:13:58;;;;;;;11.48;5.85;;;;;;;1.04;100.00;99140.31;4976467;28;20026;-91
2023/11/30 00:16:24;;;;;;;10.07;5.60;;;;;;;0.99;100.00;99131.22;4975627;28;20027;-91
2023/11/30 00:18:49;;;;;;;11.02;5.57;;;;;;;0.92;100.00;99133.19;4976914;28;20031;-91
2023/11/30 00:21:14;;;;;;;10.27;6.25;;;;;;;0.85;100.00;99124.13;4976504;28;20052;-90
2023/11/30 00:23:40;;;;;;;8.27;5.28;;;;;;;0.82;100.00;99117.47;4975146;28;20037;-91
2023/11/30 00:26:05;;;;;;;15.40;6.55;;;;;;;0.79;100.00;99115.06;4976351;28;20126;-91
2023/11/30 00:28:31;;;;;;;14.00;6.25;;;;;;;0.76;100.00;99117.72;4976578;28;20481;-91
2023/11/30 00:30:56;;;;;;;12.00;4.90;;;;;;;0.78;100.00;99121.03;4974196;28;20037;-90
2023/11/30 00:33:22;;;;;;;10.18;5.20;;;;;;;0.74;100.00;99119.47;4974969;28;20041;-89
2023/11/30 00:35:47;;;;;;;14.00;6.78;;;;;;;0.65;100.00;99122.38;4975805;28;20041;-91
2023/11/30 00:38:12;;;;;;;10.77;6.05;;;;;;;0.61;100.00;99111.53;4976347;28;20061;-91
2023/11/30 00:40:39;;;;;;;14.68;5.63;;;;;;;0.60;100.00;99103.94;4976535;28;20034;-90
2023/11/30 00:43:05;;;;;;;14.25;6.20;;;;;;;0.58;100.00;99103.16;4974864;28;20786;-91
2023/11/30 00:45:30;;;;;;;11.85;7.15;;;;;;;0.56;100.00;99102.41;4975957;28;20026;-91
2023/11/30 00:47:55;;;;;;;14.85;6.65;;;;;;;0.58;100.00;99103.16;4976118;28;20098;-90
2023/11/30 00:50:21;;;;;;;11.40;6.75;;;;;;;0.42;100.00;99101.22;4975004;28;20122;-91
2023/11/30 00:52:46;;;;;;;13.23;6.82;;;;;;;0.48;100.00;99099.34;4976031;28;20057;-90
2023/11/30 00:55:12;;;;;;;15.35;7.35;;;;;;;0.38;100.00;99098.84;4975387;28;20038;-90
2023/11/30 00:57:37;;;;;;;14.38;7.40;;;;;;;0.43;100.00;99100.31;4961070;28;20026;-91
2023/11/30 01:00:05;;;;;;;14.98;8.32;;;;;;;0.41;100.00;99103.81;4974371;28;20102;-90
2023/11/30 01:02:31;;;;;;;14.52;7.93;;;;;;;0.40;100.00;99102.97;4974416;28;20030;-90
2023/11/30 01:04:56;;;;;;;16.27;7.60;;;;;;;0.41;100.00;99093.66;4975356;28;20367;-91
2023/11/30 01:07:21;;;;;;;13.43;7.40;;;;;;;0.33;100.00;99096.47;4973912;28;20030;-91
2023/11/30 01:09:47;;;;;;;10.80;5.65;;;;;;;0.34;100.00;99097.31;4974416;28;20037;-91
2023/11/30 01:12:12;;;;;;;11.65;6.88;;;;;;;0.29;100.00;99097.47;4974486;28;20031;-91
2023/11/30 01:14:40;;;;;;;17.00;7.47;;;;;;;0.40;100.00;99087.75;4974138;28;20465;-89
2023/11/30 01:17:05;;;;;;;14.15;6.43;;;;;;;0.32;100.00;99092.31;4975817;28;20035;-91
2023/11/30 01:19:30;;;;;;;16.02;7.15;;;;;;;0.37;100.00;99099.75;4974470;28;20041;-91
2023/11/30 01:21:56;;;;;;;16.63;7.60;;;;;;;0.27;100.00;99106.03;4975389;28;20030;-91
2023/11/30 01:24:22;;;;;;;15.35;7.25;;;;;;;0.32;100.00;99099.09;4975090;28;20069;-91
2023/11/30 01:26:48;;;;;;;14.43;7.22;;;;;;;0.26;100.00;99092.50;4974025;28;20046;-91
2023/11/30 01:29:14;;;;;;;15.93;7.78;;;;;;;0.30;100.00;99086.44;4975152;28;20128;-91
2023/11/30 01:31:39;;;;;;;19.88;8.82;;;;;;;0.31;100.00;99090.63;4975309;28;20027;-91
2023/11/30 01:34:04;;;;;;;19.05;8.00;;;;;;;0.28;100.00;99095.81;4975174;28;20078;-91
2023/11/30 01:36:30;;;;;;;16.73;8.45;;;;;;;0.35;100.00;99094.72;4974833;28;20027;-91
2023/11/30 01:38:55;;;;;;;20.33;8.95;;;;;;;0.38;100.00;99088.69;4975076;28;20110;-89
2023/11/30 01:41:20;;;;;;;16.80;7.85;;;;;;;0.35;100.00;99084.56;4975195;28;20055;-89
2023/11/30 01:43:46;;;;;;;23.48;10.35;;;;;;;0.29;100.00;99091.56;4975075;28;20437;-89
2023/11/30 01:46:13;;;;;;;19.92;8.30;;;;;;;0.35;100.00;99094.72;4974765;28;20037;-89
2023/11/30 01:48:40;;;;;;;18.02;8.85;;;;;;;0.42;100.00;99100.41;4974784;28;20038;-89
2023/11/30 01:51:08;;;;;;;16.98;9.23;;;;;;;0.50;100.00;99102.66;4974766;28;20532;-89
2023/11/30 01:53:35;;;;;;;17.70;9.18;;;;;;;0.40;100.00;99102.97;4975152;28;20032;-89
2023/11/30 01:56:01;;;;;;;20.45;9.02;;;;;;;0.37;100.00;99100.56;4972988;28;20023;-89
2023/11/30 01:58:27;;;;;;;23.70;10.35;;;;;;;0.30;100.00;99104.22;4973597;28;20034;-89
2023/11/30 02:00:53;;;;;;;21.52;11.13;;;;;;;0.25;100.00;99108.63;4974693;28;20089;-90
2023/11/30 02:03:18;;;;;;;20.25;10.52;;;;;;;0.27;100.00;99104.34;4974383;28;20034;-89
2023/11/30 02:05:46;;;;;;;20.98;10.48;;;;;;;0.28;100.00;99103.44;4974428;28;20035;-89
2023/11/30 02:08:12;;;;;;;20.45;11.18;;;;;;;0.19;100.00;99107.13;4974815;28;20089;-92
2023/11/30 02:10:37;;;;;;;24.90;10.20;;;;;;;0.17;100.00;99100.47;4974194;28;20027;-88
2023/11/30 02:13:03;;;;;;;18.63;11.05;;;;;;;0.22;100.00;99098.59;4974451;28;20414;-89
2023/11/30 02:15:28;;;;;;;19.08;10.57;;;;;;;0.23;100.00;99105.31;4974482;28;20473;-89
2023/11/30 02:17:54;;;;;;;20.80;10.65;;;;;;;0.25;100.00;99093.41;4974564;28;20077;-89
2023/11/30 02:20:19;;;;;;;22.35;10.30;;;;;;;0.24;100.00;99094.28;4974501;28;20389;-90
2023/11/30 02:22:45;;;;;;;18.88;10.38;;;;;;;0.19;100.00;99093.63;4973841;28;20036;-89
2023/11/30 02:25:11;;;;;;;22.52;10.38;;;;;;;0.07;100.00;99092.34;4972952;28;20505;-89
2023/11/30 02:27:36;;;;;;;31.20;11.82;;;;;;;0.13;100.00;99089.59;4974274;28;20058;-89
2023/11/30 02:30:01;;;;;;;19.63;10.82;;;;;;;-0.04;100.00;99092.75;4972542;28;20362;-89
2023/11/30 02:32:26;;;;;;;19.35;11.23;;;;;;;-0.01;100.00;99100.25;4974364;28;20027;-89
2023/11/30 02:34:52;;;;;;;21.23;11.48;;;;;;;-0.01;100.00;99102.78;4973869;28;20030;-89
2023/11/30 02:37:17;;;;;;;29.30;11.40;;;;;;;-0.05;100.00;99111.41;4973775;28;20027;-89
2023/11/30 02:39:43;;;;;;;25.45;12.40;;;;;;;-0.06;100.00;99106.38;4973841;28;20037;-89
2023/11/30 02:42:09;;;;;;;20.95;11.00;;;;;;;0.08;100.00;99095.75;4973599;28;20113;-89
2023/11/30 02:44:34;;;;;;;19.17;11.05;;;;;;;0.17;100.00;99108.06;4972300;28;20027;-89
2023/11/30 02:47:00;;;;;;;19.77;10.60;;;;;;;0.06;100.00;99105.94;4973661;28;20037;-90
2023/11/30 02:49:25;;;;;;;21.60;11.73;;;;;;;-0.10;100.00;99098.06;4973571;28;20860;-89
2023/11/30 02:51:50;;;;;;;21.40;10.68;;;;;;;-0.10;100.00;99103.13;4973919;28;20532;-89
2023/11/30 02:54:16;;;;;;;19.95;10.35;;;;;;;0.01;100.00;99102.72;4973382;28;20477;-89
2023/11/30 02:56:41;;;;;;;17.92;10.32;;;;;;;-0.06;100.00;99094.50;4973634;28;20031;-89
2023/11/30 02:59:07;;;;;;;19.75;10.27;;;;;;;0.01;100.00;99095.13;4973711;28;20023;-89
2023/11/30 03:01:32;;;;;;;19.17;9.68;;;;;;;0.02;100.00;99080.72;4973365;28;20031;-88
2023/11/30 03:03:57;;;;;;;18.25;9.48;;;;;;;-0.02;100.00;99077.50;4971856;28;20472;-89
2023/11/30 03:06:23;;;;;;;17.48;9.52;;;;;;;-0.07;100.00;99072.56;4971828;28;20062;-89
2023/11/30 03:08:48;;;;;;;16.60;9.13;;;;;;;-0.02;100.00;99078.31;4972279;28;20086;-89
2023/11/30 03:11:13;;;;;;;17.98;9.40;;;;;;;-0.09;100.00;99089.56;4973427;28;20023;-90
2023/11/30 03:13:40;;;;;;;19.95;10.82;;;;;;;-0.19;100.00;99088.22;4971860;28;20617;-89
2023/11/30 03:16:05;;;;;;;23.75;10.48;;;;;;;-0.31;100.00;99078.53;4973351;28;20045;-89
2023/11/30 03:18:31;;;;;;;20.17;11.02;;;;;;;-0.28;100.00;99093.63;4972822;28;20500;-89
2023/11/30 03:20:56;;;;;;;20.52;10.10;;;;;;;-0.21;100.00;99090.00;4973286;28;20035;-89
2023/11/30 03:23:21;;;;;;;23.60;12.20;;;;;;;-0.28;100.00;99088.53;4971610;28;20039;-89
2023/11/30 03:25:47;;;;;;;22.73;11.38;;;;;;;-0.29;100.00;99091.97;4973352;28;20068;-89
2023/11/30 03:28:12;;;;;;;22.15;11.57;;;;;;;-0.47;100.00;99088.34;4973210;28;20057;-89
2023/11/30 03:30:37;;;;;;;20.25;10.98;;;;;;;-0.49;100.00;99095.16;4972989;28;20033;-90
2023/11/30 03:33:03;;;;;;;19.90;11.35;;;;;;;-0.45;100.00;99084.88;4972827;28;20378;-90
2023/11/30 03:35:28;;;;;;;26.05;11.75;;;;;;;-0.38;100.00;99085.50;4972573;28;20085;-90
2023/11/30 03:37:53;;;;;;;19.98;12.15;;;;;;;-0.57;100.00;99092.91;4971792;28;20030;-90
2023/11/30 03:40:19;;;;;;;22.98;11.20;;;;;;;-0.67;100.00;99073.81;4972778;28;20022;-89
2023/11/30 03:42:44;;;;;;;24.38;11.68;;;;;;;-0.52;100.00;99078.34;4972962;28;20288;-89
2023/11/30 03:45:10;;;;;;;22.77;11.75;;;;;;;-0.58;100.00;99087.91;4972979;28;20110;-90
2023/11/30 03:47:35;;;;;;;27.63;13.05;;;;;;;-0.63;100.00;99088.06;4972718;28;20030;-89
2023/11/30 03:50:01;;;;;;;26.08;11.90;;;;;;;-0.60;100.00;99084.59;4972647;28;20035;-90
2023/11/30 03:52:26;;;;;;;23.08;12.02;;;;;;;-0.62;100.00;99079.56;4971755;28;20478;-90
2023/11/30 03:54:51;;;;;;;21.70;11.10;;;;;;;-0.58;100.00;99076.06;4972620;28;20030;-90
2023/11/30 03:57:17;;;;;;;19.58;11.63;;;;;;;-0.60;100.00;99077.81;4971305;28;20038;-90
2023/11/30 03:59:43;;;;;;;24.70;11.73;;;;;;;-0.65;100.00;99075.41;4972706;28;20050;-90
2023/11/30 04:02:08;;;;;;;20.35;11.15;;;;;;;-0.71;100.00;99073.09;4972561;28;20489;-90
2023/11/30 04:04:39;;;;;;;20.08;11.73;;;;;;;-0.76;100.00;99084.25;4970954;28;20030;-89
2023/11/30 04:07:04;;;;;;;21.30;11.85;;;;;;;-0.72;100.00;99071.44;4972654;28;20026;-91
2023/11/30 04:09:30;;;;;;;19.95;11.02;;;;;;;-0.82;100.00;99081.94;4972783;28;20035;-90
2023/11/30 04:11:55;;;;;;;22.33;11.80;;;;;;;-0.76;100.00;99074.13;4972364;28;20031;-89
2023/11/30 04:14:20;;;;;;;25.63;12.85;;;;;;;-0.70;100.00;99084.06;4972235;28;20027;-89
2023/11/30 04:16:46;;;;;;;26.17;13.15;;;;;;;-0.67;100.00;99087.31;4972906;28;20030;-89
2023/11/30 04:19:11;;;;;;;21.77;11.95;;;;;;;-0.78;100.00;99098.66;4971168;28;20070;-89
2023/11/30 04:21:37;;;;;;;24.67;12.40;;;;;;;-0.84;100.00;99098.88;4972511;28;20031;-90
2023/11/30 04:24:02;;;;;;;23.05;12.88;;;;;;;-0.83;100.00;99100.53;4972425;28;20030;-89
2023/11/30 04:26:28;;;;;;;25.52;12.60;;;;;;;-0.82;100.00;99092.06;4972626;28;20413;-90
2023/11/30 04:28:53;;;;;;;24.52;11.93;;;;;;;-0.78;100.00;99101.19;4972384;28;20033;-91
2023/11/30 04:31:19;;;;;;;24.83;11.77;;;;;;;-0.88;100.00;99099.00;4972464;28;20377;-90
2023/11/30 04:33:44;;;;;;;25.77;12.45;;;;;;;-0.91;100.00;99091.47;4971362;28;20042;-91
2023/11/30 04:36:11;;;;;;;26.45;12.43;;;;;;;-0.83;100.00;99093.75;4972768;28;20023;-89
2023/11/30 04:38:36;;;;;;;27.15;12.95;;;;;;;-0.81;100.00;99093.72;4971092;28;20022;-90
2023/11/30 04:41:01;;;;;;;26.02;11.52;;;;;;;-0.76;100.00;99087.59;4972100;28;20030;-89
2023/11/30 04:43:27;;;;;;;22.55;11.63;;;;;;;-0.93;100.00;99085.63;4971266;28;20370;-89
2023/11/30 04:45:52;;;;;;;24.30;12.15;;;;;;;-0.87;100.00;99077.84;4972204;28;20433;-89
2023/11/30 04:48:18;;;;;;;26.95;13.13;;;;;;;-0.88;100.00;99077.88;4974524;28;20378;-89
2023/11/30 04:50:43;;;;;;;25.02;12.77;;;;;;;-0.97;100.00;99068.06;4976444;28;20469;-89
2023/11/30 04:53:08;;;;;;;31.25;13.55;;;;;;;-0.94;100.00;99073.03;4975566;28;20023;-89
2023/11/30 04:55:34;;;;;;;23.42;13.00;;;;;;;-0.96;100.00;99073.06;4975885;28;20106;-89
2023/11/30 04:57:59;;;;;;;21.52;11.73;;;;;;;-1.08;100.00;99081.06;4975727;28;20392;-90
2023/11/30 05:00:24;;;;;;;26.35;13.50;;;;;;;-1.08;100.00;99071.75;4974581;28;20049;-89
2023/11/30 05:02:52;;;;;;;26.10;13.38;;;;;;;-1.08;100.00;99081.06;4975458;28;20047;-89
2023/11/30 05:05:21;;;;;;;24.27;12.70;;;;;;;-1.09;100.00;99084.47;4975680;28;20066;-90
2023/11/30 05:07:46;;;;;;;23.92;13.32;;;;;;;-1.12;100.00;99084.56;4975690;28;20035;-89
2023/11/30 05:10:11;;;;;;;24.35;12.52;;;;;;;-1.17;100.00;99079.66;4975719;28;20102;-90
2023/11/30 05:12:37;;;;;;;26.70;13.50;;;;;;;-1.23;100.00;99082.38;4975483;28;20022;-89
2023/11/30 05:15:04;;;;;;;28.42;13.75;;;;;;;-1.23;100.00;99081.53;4975534;28;20027;-90
2023/11/30 05:17:29;;;;;;;28.20;13.52;;;;;;;-1.21;100.00;99074.72;4974182;28;20503;-89
2023/11/30 05:19:54;;;;;;;26.27;11.77;;;;;;;-1.25;100.00;99070.63;4975632;28;20038;-89
2023/11/30 05:22:20;;;;;;;24.33;13.07;;;;;;;-1.23;100.00;99079.84;4975455;28;20096;-89
2023/11/30 05:24:45;;;;;;;31.00;14.02;;;;;;;-1.25;100.00;99068.09;4975073;28;20126;-90
2023/11/30 05:27:10;;;;;;;27.33;14.68;;;;;;;-1.33;100.00;99071.69;4975161;28;20034;-89
2023/11/30 05:29:36;;;;;;;27.05;13.98;;;;;;;-1.33;100.00;99060.75;4974718;28;20030;-89
2023/11/30 05:32:01;;;;;;;26.52;14.25;;;;;;;-1.34;100.00;99070.06;4974081;28;20034;-89
2023/11/30 05:34:27;;;;;;;30.17;15.95;;;;;;;-1.34;100.00;99070.06;4975481;28;20033;-89
2023/11/30 05:36:52;;;;;;;27.45;14.52;;;;;;;-1.33;100.00;99071.69;4975220;28;20113;-89
2023/11/30 05:39:17;;;;;;;27.17;15.15;;;;;;;-1.38;100.00;99065.94;4975375;28;20054;-89
2023/11/30 05:41:43;;;;;;;30.17;14.40;;;;;;;-1.53;100.00;99074.03;4975140;28;20062;-88
2023/11/30 05:44:08;;;;;;;27.90;15.88;;;;;;;-1.44;100.00;99080.50;4974762;28;20018;-90
2023/11/30 05:46:33;;;;;;;30.98;15.43;;;;;;;-1.35;100.00;99073.44;4974775;28;20030;-88
2023/11/30 05:48:59;;;;;;;32.08;15.98;;;;;;;-1.43;100.00;99080.44;4974592;28;20105;-91
2023/11/30 05:51:26;;;;;;;32.55;16.00;;;;;;;-1.44;100.00;99083.03;4974941;28;20385;-89
2023/11/30 05:53:51;;;;;;;28.67;15.18;;;;;;;-1.44;100.00;99083.88;4973692;28;20506;-89
2023/11/30 05:56:17;;;;;;;26.25;14.38;;;;;;;-1.42;100.00;99087.16;4974784;28;20035;-89
2023/11/30 05:58:43;;;;;;;30.25;15.20;;;;;;;-1.32;100.00;99088.56;4974074;28;20035;-89
2023/11/30 06:01:08;;;;;;;26.13;14.55;;;;;;;-1.37;100.00;99085.31;4974580;28;20114;-89
2023/11/30 06:03:33;;;;;;;31.70;15.85;;;;;;;-1.25;100.00;99080.75;4974551;28;20114;-89
2023/11/30 06:05:59;;;;;;;33.35;15.38;;;;;;;-1.21;100.00;99094.97;4974440;28;20037;-90
2023/11/30 06:08:24;;;;;;;33.15;17.38;;;;;;;-1.22;100.00;99089.09;4974048;28;20481;-89
2023/11/30 06:10:50;;;;;;;30.73;15.23;;;;;;;-1.16;100.00;99083.00;4974165;28;20023;-90
2023/11/30 06:13:16;;;;;;;36.30;16.02;;;;;;;-1.23;100.00;99084.06;4972898;28;20035;-90
2023/11/30 06:15:41;;;;;;;32.20;16.80;;;;;;;-1.22;100.00;99085.72;4974274;28;20041;-90
2023/11/30 06:18:07;;;;;;;31.90;15.63;;;;;;;-1.32;100.00;99088.56;4973850;28;20086;-89
2023/11/30 06:20:32;;;;;;;29.30;15.55;;;;;;;-1.28;100.00;99093.53;4973161;28;20041;-90
2023/11/30 06:22:57;;;;;;;27.45;14.60;;;;;;;-1.14;100.00;99092.22;4973891;28;20474;-89
2023/11/30 06:25:23;;;;;;;30.98;16.50;;;;;;;-1.20;100.00;99091.56;4973148;28;20035;-89
2023/11/30 06:27:48;;;;;;;30.92;17.98;;;;;;;-1.30;100.00;99094.38;4973934;28;20473;-90
2023/11/30 06:30:14;;;;;;;30.42;16.20;;;;;;;-1.18;100.00;99105.00;4974084;28;20022;-89
2023/11/30 06:32:39;;;;;;;34.20;16.55;;;;;;;-1.19;100.00;99109.25;4972649;28;20503;-89
2023/11/30 06:35:05;;;;;;;33.90;17.38;;;;;;;-1.10;100.00;99118.25;4973809;28;20077;-90
2023/11/30 06:37:31;;;;;;;35.53;18.23;;;;;;;-1.07;100.00;99118.19;4972536;28;20045;-90
2023/11/30 06:39:56;;;;;;;33.60;17.90;;;;;;;-1.09;100.00;99119.91;4974260;28;20485;-90
2023/11/30 06:42:21;;;;;;;37.65;17.65;;;;;;;-1.08;100.00;99119.03;4973783;28;20027;-90
2023/11/30 06:44:50;;;;;;;38.40;16.80;;;;;;;-1.12;100.00;99113.25;4973470;28;20107;-90
2023/11/30 06:47:15;;;;;;;37.22;17.23;;;;;;;-1.20;100.00;99112.63;4972114;28;20397;-90
2023/11/30 06:49:41;;;;;;;35.42;18.85;;;;;;;-1.15;100.00;99109.97;4973661;28;20031;-90
2023/11/30 06:52:06;;;;;;;30.77;17.67;;;;;;;-1.26;100.00;99112.84;4972515;28;20485;-90
2023/11/30 06:54:32;;;;;;;25.52;16.58;;;;;;;-1.28;100.00;99116.31;4973513;28;20489;-90
2023/11/30 06:56:57;;;;;;;36.47;17.70;;;;;;;-1.19;100.00;99116.03;4972140;28;20041;-90
2023/11/30 06:59:22;;;;;;;40.65;18.98;;;;;;;-1.14;100.00;99126.84;4971177;28;20049;-90
2023/11/30 07:01:49;;;;;;;35.50;19.38;;;;;;;-1.12;100.00;99127.63;4973331;28;20026;-90
2023/11/30 07:04:14;;;;;;;37.70;19.42;;;;;;;-1.10;100.00;99133.44;4971439;28;20027;-90
2023/11/30 07:06:40;;;;;;;32.10;18.65;;;;;;;-0.98;100.00;99120.41;4973247;28;20412;-90
2023/11/30 07:09:05;;;;;;;48.35;19.75;;;;;;;-1.01;100.00;99110.38;4971650;28;20023;-90
2023/11/30 07:11:31;;;;;;;38.03;20.30;;;;;;;-1.04;100.00;99123.13;4973378;28;20023;-90
2023/11/30 07:13:57;;;;;;;32.22;18.10;;;;;;;-1.05;100.00;99121.47;4972599;28;20059;-90
2023/11/30 07:16:22;;;;;;;37.47;18.92;;;;;;;-1.07;100.00;99130.84;4973562;28;20045;-90
2023/11/30 07:18:48;;;;;;;33.70;17.67;;;;;;;-1.03;100.00;99129.03;4973552;28;20474;-90
2023/11/30 07:21:14;;;;;;;35.58;18.58;;;;;;;-0.91;100.00;99134.53;4977944;28;20027;-90
2023/11/30 07:23:41;;;;;;;35.75;18.17;;;;;;;-0.95;100.00;99129.59;4961375;28;20076;-90
2023/11/30 07:26:10;;;;;;;34.20;18.48;;;;;;;-1.03;100.00;99124.78;4972995;28;20030;-90
2023/11/30 07:28:36;;;;;;;32.45;17.67;;;;;;;-0.95;100.00;99127.91;4980098;28;20042;-90
2023/11/30 07:31:01;;;;;;;29.13;16.05;;;;;;;-1.08;100.00;99132.50;4989712;28;20065;-90
2023/11/30 07:33:26;;;;;;;28.83;15.50;;;;;;;-0.98;100.00;99133.06;4962152;28;20038;-90
2023/11/30 07:35:52;;;;;;;25.80;15.50;;;;;;;-1.03;100.00;99134.09;4972859;28;20026;-89
2023/11/30 07:38:17;;;;;;;25.67;15.25;;;;;;;-1.02;100.00;99126.47;4973221;28;20031;-90
2023/11/30 07:40:43;;;;;;;27.85;15.48;;;;;;;-1.02;100.00;99131.53;4973089;28;20030;-90
2023/11/30 07:43:08;;;;;;;27.25;14.52;;;;;;;-0.99;100.00;99136.47;4972779;28;20050;-90
2023/11/30 07:45:33;;;;;;;30.13;14.77;;;;;;;-1.12;100.00;99132.69;4972707;28;20058;-90
2023/11/30 07:47:59;;;;;;;25.50;13.80;;;;;;;-1.10;100.00;99133.44;4973018;28;20038;-89
2023/11/30 07:50:27;;;;;;;24.63;14.55;;;;;;;-1.00;100.00;99134.84;4971946;28;20051;-89
2023/11/30 07:52:52;;;;;;;26.60;14.77;;;;;;;-1.00;100.00;99141.59;4973079;28;20032;-90
2023/11/30 07:55:18;;;;;;;27.15;14.60;;;;;;;-1.09;100.00;99130.06;4972511;28;20046;-89
2023/11/30 07:57:43;;;;;;;27.95;14.05;;;;;;;-1.15;100.00;99136.09;4972910;28;20027;-90
2023/11/30 08:00:11;;;;;;;24.30;14.68;;;;;;;-1.09;100.00;99135.13;4972776;28;20015;-89
2023/11/30 08:02:37;;;;;;;29.92;16.58;;;;;;;-1.13;100.00;99141.13;4972514;28;20030;-90
2023/11/30 08:05:05;;;;;;;29.40;16.83;;;;;;;-1.11;100.00;99149.53;4971185;28;20030;-88
2023/11/30 08:07:30;;;;;;;24.52;15.00;;;;;;;-1.10;100.00;99143.56;4972815;28;20118;-89
2023/11/30 08:09:56;;;;;;;30.17;16.98;;;;;;;-1.17;100.00;99152.22;4972816;28;20170;-88
2023/11/30 08:12:21;;;;;;;26.35;15.75;;;;;;;-1.28;100.00;99146.69;4972945;28;20042;-88
2023/11/30 08:14:46;;;;;;;35.28;16.52;;;;;;;-1.23;100.00;99150.72;4972516;28;20035;-88
2023/11/30 08:17:12;;;;;;;32.17;16.20;;;;;;;-1.26;100.00;99145.75;4972739;28;20038;-88
2023/11/30 08:19:37;;;;;;;30.70;17.17;;;;;;;-1.26;100.00;99153.34;4972004;28;20073;-88
2023/11/30 08:22:03;;;;;;;38.30;17.65;;;;;;;-1.21;100.00;99156.56;4976057;28;20031;-88
2023/11/30 08:24:29;;;;;;;29.25;16.50;;;;;;;-1.13;100.00;99151.25;4975928;28;20031;-89
2023/11/30 08:26:54;;;;;;;34.33;17.15;;;;;;;-1.17;100.00;99152.22;4976118;28;20039;-88
2023/11/30 08:29:20;;;;;;;32.88;16.92;;;;;;;-1.13;100.00;99148.72;4974143;28;20034;-89
2023/11/30 08:31:45;;;;;;;26.48;15.70;;;;;;;-1.12;100.00;99155.47;4974905;28;20094;-89
2023/11/30 08:34:11;;;;;;;30.60;15.27;;;;;;;-1.09;100.00;99155.38;4976603;28;20466;-88
2023/11/30 08:36:36;;;;;;;30.50;16.17;;;;;;;-1.12;100.00;99163.06;4976561;28;20058;-89
2023/11/30 08:39:03;;;;;;;26.10;14.48;;;;;;;-1.00;100.00;99166.91;4976719;28;20054;-89
2023/11/30 08:41:30;;;;;;;29.48;15.50;;;;;;;-0.98;100.00;99168.50;4976459;28;20491;-89
2023/11/30 08:43:55;;;;;;;29.90;14.68;;;;;;;-1.01;100.00;99163.56;4976227;28;20106;-89
2023/11/30 08:46:20;;;;;;;27.05;15.18;;;;;;;-0.97;100.00;99165.13;4975142;28;20119;-89
2023/11/30 08:48:46;;;;;;;30.05;14.90;;;;;;;-1.10;100.00;99171.41;4976383;28;20027;-88
2023/11/30 08:51:11;;;;;;;31.10;16.13;;;;;;;-1.17;100.00;99167.41;4976174;28;20524;-89
2023/11/30 08:53:37;;;;;;;32.28;16.48;;;;;;;-1.04;100.00;99172.97;4974988;28;20030;-89
2023/11/30 08:56:02;;;;;;;32.42;16.13;;;;;;;-1.14;100.00;99187.59;4976169;28;20182;-89
2023/11/30 08:58:28;;;;;;;34.60;16.73;;;;;;;-1.12;100.00;99175.72;4976179;28;20037;-89
2023/11/30 09:00:54;;;;;;;30.73;15.93;;;;;;;-1.12;100.00;99168.94;4976209;28;20105;-89
2023/11/30 09:03:22;;;;;;;31.05;16.08;;;;;;;-1.08;100.00;99174.75;4975985;28;20031;-89
2023/11/30 09:05:48;;;;;;;32.22;16.48;;;;;;;-1.13;100.00;99171.53;4974556;28;20031;-89
2023/11/30 09:08:13;;;;;;;31.08;16.52;;;;;;;-1.19;100.00;99181.84;4975868;28;20031;-89
2023/11/30 09:10:39;;;;;;;30.23;15.00;;;;;;;-1.19;100.00;99185.19;4974620;28;20392;-89
2023/11/30 09:13:07;;;;;;;30.45;15.43;;;;;;;-1.06;100.00;99188.19;4975910;28;20321;-89
2023/11/30 09:15:33;;;;;;;26.60;16.27;;;;;;;-1.06;100.00;99184.84;4975878;28;20059;-89
2023/11/30 09:18:01;;;;;;;26.38;14.73;;;;;;;-1.06;100.00;99185.66;4975667;28;20018;-89
2023/11/30 09:20:27;;;;;;;34.13;15.48;;;;;;;-1.09;100.00;99180.69;4975798;28;20043;-89
2023/11/30 09:22:53;;;;;;;32.90;15.75;;;;;;;-0.97;100.00;99190.44;4975498;28;20070;-89
2023/11/30 09:25:18;;;;;;;31.48;16.38;;;;;;;-0.89;100.00;99188.50;4975782;28;20050;-88
2023/11/30 09:27:44;;;;;;;28.70;14.23;;;;;;;-0.83;100.00;99194.25;4975528;28;20426;-89
2023/11/30 09:30:10;;;;;;;33.83;15.40;;;;;;;-0.81;100.00;99195.03;4975536;28;20030;-89
2023/11/30 09:32:36;;;;;;;38.72;16.65;;;;;;;-0.98;100.00;99193.84;4974588;28;20034;-89
2023/11/30 09:35:03;;;;;;;30.90;14.98;;;;;;;-0.81;100.00;99192.50;4974241;28;20496;-89
2023/11/30 09:37:29;;;;;;;32.00;16.02;;;;;;;-0.75;100.00;99192.31;4975551;28;20397;-89
2023/11/30 09:39:54;;;;;;;29.15;15.38;;;;;;;-0.75;100.00;99187.25;4975349;28;20029;-89
2023/11/30 09:42:19;;;;;;;31.92;17.33;;;;;;;-0.76;100.00;99183.06;4975345;28;20425;-89
2023/11/30 09:44:45;;;;;;;33.63;18.17;;;;;;;-0.84;100.00;99185.00;4975190;28;20018;-89
2023/11/30 09:47:11;;;;;;;36.97;17.40;;;;;;;-0.67;100.00;99185.31;4974986;28;20058;-89
2023/11/30 09:49:39;;;;;;;38.38;19.38;;;;;;;-0.52;100.00;99194.13;4975386;28;20134;-88
2023/11/30 09:52:05;;;;;;;41.88;19.42;;;;;;;-0.63;100.00;99186.88;4975297;28;20093;-89
2023/11/30 09:54:31;;;;;;;34.53;17.60;;;;;;;-0.49;100.00;99187.25;4973886;28;20415;-88
2023/11/30 09:56:57;;;;;;;37.20;17.08;;;;;;;-0.44;100.00;99180.34;4975066;28;20031;-89
2023/11/30 09:59:23;;;;;;;33.83;16.35;;;;;;;-0.45;100.00;99171.06;4974802;28;20385;-89
2023/11/30 10:01:48;;;;;;;38.45;18.65;;;;;;;-0.37;100.00;99175.88;4973824;28;20023;-89
2023/11/30 10:04:15;;;;;;;34.08;15.32;;;;;;;-0.35;100.00;99180.91;4975333;28;20033;-89
2023/11/30 10:06:42;;;;;;;33.83;16.58;;;;;;;-0.27;100.00;99186.53;4974840;28;20034;-89
2023/11/30 10:09:12;;;;;;;29.23;14.52;;;;;;;-0.16;100.00;99186.19;4974728;28;20482;-89
2023/11/30 10:11:37;;;;;;;33.00;16.63;;;;;;;-0.20;100.00;99182.91;4975089;28;20093;-89
2023/11/30 10:14:03;;;;;;;35.03;15.48;;;;;;;-0.29;100.00;99194.22;4974729;28;20126;-89
2023/11/30 10:16:28;;;;;;;30.75;15.13;;;;;;;-0.16;100.00;99184.47;4974645;28;20034;-89
2023/11/30 10:18:53;;;;;;;29.70;14.93;;;;;;;-0.11;100.00;99180.06;4974573;28;20031;-89
2023/11/30 10:21:21;;;;;;;30.60;14.95;;;;;;;-0.07;100.00;99183.34;4974453;28;20481;-89
2023/11/30 10:23:47;;;;;;;42.45;17.20;;;;;;;0.02;100.00;99184.72;4974485;28;20461;-89
2023/11/30 10:26:15;;;;;;;31.08;14.05;;;;;;;0.13;100.00;99200.41;4974517;28;20038;-89
2023/11/30 10:28:41;;;;;;;26.98;13.77;;;;;;;0.14;100.00;99191.91;4974323;28;20082;-89
2023/11/30 10:31:08;;;;;;;27.83;14.88;;;;;;;0.04;100.00;99195.66;4973277;28;20034;-88
2023/11/30 10:33:38;;;;;;;32.20;14.68;;;;;;;0.16;100.00;99195.22;4974429;28;20027;-89
2023/11/30 10:36:06;;;;;;;30.33;15.05;;;;;;;0.17;100.00;99189.25;4974365;28;20034;-88
2023/11/30 10:38:33;;;;;;;29.98;15.65;;;;;;;0.15;100.00;99183.44;4974179;28;20026;-89
2023/11/30 10:41:24;;;;;;;29.80;15.25;;;;;;;0.19;100.00;99184.97;4974498;28;20023;-89
2023/11/30 10:43:55;;;;;;;33.33;14.55;;;;;;;0.34;100.00;99186.97;4973237;28;20027;-89
2023/11/30 10:46:24;;;;;;;26.52;14.60;;;;;;;0.43;100.00;99185.81;4973966;28;20109;-88
2023/11/30 10:48:50;;;;;;;28.30;14.13;;;;;;;0.51;100.00;99180.44;4973988;28;20034;-88
2023/11/30 10:51:16;;;;;;;28.70;14.68;;;;;;;0.08;100.00;99177.75;4974127;28;20547;-89
2023/11/30 10:53:49;;;;;;;27.15;12.68;;;;;;;0.33;100.00;99175.16;4974058;28;20030;-89
2023/11/30 10:56:16;;;;;;;28.20;13.55;;;;;;;0.32;100.00;99175.22;4973942;28;20474;-87
2023/11/30 10:58:43;;;;;;;22.23;11.65;;;;;;;0.41;100.00;99165.56;4973792;28;20038;-87
2023/11/30 11:01:10;;;;;;;24.80;11.98;;;;;;;0.61;100.00;99177.53;4973833;28;20054;-88
2023/11/30 11:03:35;;;;;;;23.88;11.20;;;;;;;0.54;100.00;99170.19;4973845;28;20481;-88
2023/11/30 11:06:05;;;;;;;21.75;12.43;;;;;;;0.54;100.00;99170.19;4973633;28;20054;-89
2023/11/30 11:08:31;;;;;;;22.33;9.90;;;;;;;0.63;100.00;99172.38;4973649;28;20389;-89